sensor_id;sensor_type;location;lat;lon;timestamp;P1;durP1;ratioP1;P2;durP2;ratioP2
81336;SDS011;70799;48.000;10.584;2024-01-30T00:02:35;5.07;;;1.50;;
81336;SDS011;70799;48.000;10.584;2024-01-30T00:05:11;3.75;;;1.92;;
81336;SDS011;70799;48.000;10.584;2024-01-30T00:07:47;4.07;;;1.60;;
81336;SDS011;70799;48.000;10.584;2024-01-30T00:10:23;4.20;;;1.50;;
81336;SDS011;70799;48.000;10.584;2024-01-30T00:12:59;3.63;;;1.35;;
81336;SDS011;70799;48.000;10.584;2024-01-30T00:15:35;3.83;;;1.50;;
81336;SDS011;70799;48.000;10.584;2024-01-30T00:18:11;4.18;;;1.92;;
81336;SDS011;70799;48.000;10.584;2024-01-30T00:20:47;3.55;;;1.50;;
81336;SDS011;70799;48.000;10.584;2024-01-30T00:23:23;2.97;;;1.75;;
81336;SDS011;70799;48.000;10.584;2024-01-30T00:25:59;3.20;;;1.38;;
81336;SDS011;70799;48.000;10.584;2024-01-30T00:28:38;4.57;;;1.42;;
81336;SDS011;70799;48.000;10.584;2024-01-30T00:31:14;4.25;;;1.48;;
81336;SDS011;70799;48.000;10.584;2024-01-30T00:33:50;2.85;;;1.50;;
81336;SDS011;70799;48.000;10.584;2024-01-30T00:36:26;3.00;;;1.35;;
81336;SDS011;70799;48.000;10.584;2024-01-30T00:39:02;2.33;;;0.90;;
81336;SDS011;70799;48.000;10.584;2024-01-30T00:41:41;3.25;;;1.30;;
81336;SDS011;70799;48.000;10.584;2024-01-30T00:44:17;2.53;;;1.40;;
81336;SDS011;70799;48.000;10.584;2024-01-30T00:46:53;2.22;;;1.13;;
81336;SDS011;70799;48.000;10.584;2024-01-30T00:49:29;2.92;;;1.38;;
81336;SDS011;70799;48.000;10.584;2024-01-30T00:52:05;4.03;;;1.10;;
81336;SDS011;70799;48.000;10.584;2024-01-30T00:54:42;4.90;;;1.70;;
81336;SDS011;70799;48.000;10.584;2024-01-30T00:57:18;3.10;;;1.42;;
81336;SDS011;70799;48.000;10.584;2024-01-30T00:59:54;3.45;;;1.70;;
81336;SDS011;70799;48.000;10.584;2024-01-30T01:02:30;3.40;;;1.70;;
81336;SDS011;70799;48.000;10.584;2024-01-30T01:05:06;4.97;;;1.40;;
81336;SDS011;70799;48.000;10.584;2024-01-30T01:07:49;3.30;;;1.45;;
81336;SDS011;70799;48.000;10.584;2024-01-30T01:10:25;4.63;;;1.70;;
81336;SDS011;70799;48.000;10.584;2024-01-30T01:13:02;3.70;;;1.40;;
81336;SDS011;70799;48.000;10.584;2024-01-30T01:15:39;2.67;;;1.10;;
81336;SDS011;70799;48.000;10.584;2024-01-30T01:18:15;2.53;;;1.38;;
81336;SDS011;70799;48.000;10.584;2024-01-30T01:20:51;3.67;;;1.30;;
81336;SDS011;70799;48.000;10.584;2024-01-30T01:23:27;2.97;;;1.60;;
81336;SDS011;70799;48.000;10.584;2024-01-30T01:26:03;3.33;;;1.20;;
81336;SDS011;70799;48.000;10.584;2024-01-30T01:28:40;4.25;;;1.50;;
81336;SDS011;70799;48.000;10.584;2024-01-30T01:31:16;3.28;;;1.30;;
81336;SDS011;70799;48.000;10.584;2024-01-30T01:33:54;5.22;;;2.13;;
81336;SDS011;70799;48.000;10.584;2024-01-30T01:36:33;3.60;;;1.65;;
81336;SDS011;70799;48.000;10.584;2024-01-30T01:39:09;3.30;;;1.33;;
81336;SDS011;70799;48.000;10.584;2024-01-30T01:41:44;3.88;;;1.42;;
81336;SDS011;70799;48.000;10.584;2024-01-30T01:44:20;3.50;;;1.67;;
81336;SDS011;70799;48.000;10.584;2024-01-30T01:46:56;3.08;;;1.30;;
81336;SDS011;70799;48.000;10.584;2024-01-30T01:49:34;4.40;;;1.80;;
81336;SDS011;70799;48.000;10.584;2024-01-30T01:52:10;3.42;;;1.30;;
81336;SDS011;70799;48.000;10.584;2024-01-30T01:54:46;3.20;;;1.08;;
81336;SDS011;70799;48.000;10.584;2024-01-30T01:59:58;2.22;;;1.00;;
81336;SDS011;70799;48.000;10.584;2024-01-30T02:02:39;3.47;;;1.27;;
81336;SDS011;70799;48.000;10.584;2024-01-30T02:05:16;2.75;;;1.25;;
81336;SDS011;70799;48.000;10.584;2024-01-30T02:07:52;2.83;;;1.17;;
81336;SDS011;70799;48.000;10.584;2024-01-30T02:13:04;2.72;;;1.17;;
81336;SDS011;70799;48.000;10.584;2024-01-30T02:15:40;2.03;;;0.90;;
81336;SDS011;70799;48.000;10.584;2024-01-30T02:18:16;3.63;;;1.40;;
81336;SDS011;70799;48.000;10.584;2024-01-30T02:20:56;3.40;;;1.73;;
81336;SDS011;70799;48.000;10.584;2024-01-30T02:23:35;2.00;;;1.02;;
81336;SDS011;70799;48.000;10.584;2024-01-30T02:26:11;1.83;;;0.88;;
81336;SDS011;70799;48.000;10.584;2024-01-30T02:28:48;2.90;;;1.25;;
81336;SDS011;70799;48.000;10.584;2024-01-30T02:31:24;2.42;;;1.10;;
81336;SDS011;70799;48.000;10.584;2024-01-30T02:34:02;2.95;;;1.23;;
81336;SDS011;70799;48.000;10.584;2024-01-30T02:36:42;2.08;;;1.10;;
81336;SDS011;70799;48.000;10.584;2024-01-30T02:39:18;3.15;;;1.20;;
81336;SDS011;70799;48.000;10.584;2024-01-30T02:41:54;2.20;;;0.95;;
81336;SDS011;70799;48.000;10.584;2024-01-30T02:44:30;3.30;;;1.05;;
81336;SDS011;70799;48.000;10.584;2024-01-30T02:47:06;4.75;;;1.05;;
81336;SDS011;70799;48.000;10.584;2024-01-30T02:49:41;2.47;;;1.30;;
81336;SDS011;70799;48.000;10.584;2024-01-30T02:52:18;1.95;;;1.00;;
81336;SDS011;70799;48.000;10.584;2024-01-30T02:54:54;2.53;;;1.15;;
81336;SDS011;70799;48.000;10.584;2024-01-30T02:57:30;3.10;;;1.15;;
81336;SDS011;70799;48.000;10.584;2024-01-30T03:00:07;2.85;;;0.85;;
81336;SDS011;70799;48.000;10.584;2024-01-30T03:02:44;3.47;;;1.23;;
81336;SDS011;70799;48.000;10.584;2024-01-30T03:05:20;1.83;;;0.80;;
81336;SDS011;70799;48.000;10.584;2024-01-30T03:07:56;2.25;;;1.08;;
81336;SDS011;70799;48.000;10.584;2024-01-30T03:10:35;4.07;;;1.13;;
81336;SDS011;70799;48.000;10.584;2024-01-30T03:13:11;2.70;;;0.73;;
81336;SDS011;70799;48.000;10.584;2024-01-30T03:15:47;2.05;;;0.90;;
81336;SDS011;70799;48.000;10.584;2024-01-30T03:18:24;2.50;;;0.90;;
81336;SDS011;70799;48.000;10.584;2024-01-30T03:21:00;2.78;;;0.80;;
81336;SDS011;70799;48.000;10.584;2024-01-30T03:23:36;2.35;;;1.08;;
81336;SDS011;70799;48.000;10.584;2024-01-30T03:26:12;2.53;;;0.80;;
81336;SDS011;70799;48.000;10.584;2024-01-30T03:28:48;2.35;;;0.95;;
81336;SDS011;70799;48.000;10.584;2024-01-30T03:31:24;3.35;;;1.20;;
81336;SDS011;70799;48.000;10.584;2024-01-30T03:34:00;2.05;;;0.90;;
81336;SDS011;70799;48.000;10.584;2024-01-30T03:36:36;2.22;;;0.70;;
81336;SDS011;70799;48.000;10.584;2024-01-30T03:39:12;2.50;;;1.17;;
81336;SDS011;70799;48.000;10.584;2024-01-30T03:41:48;2.15;;;1.00;;
81336;SDS011;70799;48.000;10.584;2024-01-30T03:44:24;1.48;;;0.70;;
81336;SDS011;70799;48.000;10.584;2024-01-30T03:47:03;2.35;;;1.00;;
81336;SDS011;70799;48.000;10.584;2024-01-30T03:49:39;3.25;;;0.88;;
81336;SDS011;70799;48.000;10.584;2024-01-30T03:52:16;4.07;;;1.13;;
81336;SDS011;70799;48.000;10.584;2024-01-30T03:57:28;2.40;;;0.90;;
81336;SDS011;70799;48.000;10.584;2024-01-30T04:00:04;2.58;;;0.70;;
81336;SDS011;70799;48.000;10.584;2024-01-30T04:02:44;1.48;;;0.68;;
81336;SDS011;70799;48.000;10.584;2024-01-30T04:07:56;2.33;;;0.70;;
81336;SDS011;70799;48.000;10.584;2024-01-30T04:10:33;2.17;;;0.70;;
81336;SDS011;70799;48.000;10.584;2024-01-30T04:13:09;3.20;;;0.80;;
81336;SDS011;70799;48.000;10.584;2024-01-30T04:15:45;1.48;;;0.80;;
81336;SDS011;70799;48.000;10.584;2024-01-30T04:18:21;2.00;;;0.65;;
81336;SDS011;70799;48.000;10.584;2024-01-30T04:20:57;2.67;;;0.70;;
81336;SDS011;70799;48.000;10.584;2024-01-30T04:23:33;1.23;;;0.45;;
81336;SDS011;70799;48.000;10.584;2024-01-30T04:26:09;1.40;;;0.70;;
81336;SDS011;70799;48.000;10.584;2024-01-30T04:28:45;2.03;;;0.43;;
81336;SDS011;70799;48.000;10.584;2024-01-30T04:31:21;1.67;;;0.70;;
81336;SDS011;70799;48.000;10.584;2024-01-30T04:33:57;1.90;;;0.82;;
81336;SDS011;70799;48.000;10.584;2024-01-30T04:36:35;1.80;;;0.90;;
81336;SDS011;70799;48.000;10.584;2024-01-30T04:39:11;1.45;;;0.52;;
81336;SDS011;70799;48.000;10.584;2024-01-30T04:41:47;2.22;;;1.13;;
81336;SDS011;70799;48.000;10.584;2024-01-30T04:47:00;1.52;;;0.60;;
81336;SDS011;70799;48.000;10.584;2024-01-30T04:49:41;1.05;;;0.60;;
81336;SDS011;70799;48.000;10.584;2024-01-30T04:52:17;1.02;;;0.55;;
81336;SDS011;70799;48.000;10.584;2024-01-30T04:54:53;1.50;;;0.70;;
81336;SDS011;70799;48.000;10.584;2024-01-30T04:57:29;1.60;;;0.63;;
81336;SDS011;70799;48.000;10.584;2024-01-30T05:00:06;3.28;;;1.10;;
81336;SDS011;70799;48.000;10.584;2024-01-30T05:02:42;1.95;;;0.60;;
81336;SDS011;70799;48.000;10.584;2024-01-30T05:05:18;1.60;;;0.80;;
81336;SDS011;70799;48.000;10.584;2024-01-30T05:07:54;1.15;;;0.60;;
81336;SDS011;70799;48.000;10.584;2024-01-30T05:10:30;1.67;;;0.85;;
81336;SDS011;70799;48.000;10.584;2024-01-30T05:13:06;1.88;;;0.57;;
81336;SDS011;70799;48.000;10.584;2024-01-30T05:15:42;0.98;;;0.50;;
81336;SDS011;70799;48.000;10.584;2024-01-30T05:18:18;1.70;;;0.75;;
81336;SDS011;70799;48.000;10.584;2024-01-30T05:20:55;2.60;;;0.70;;
81336;SDS011;70799;48.000;10.584;2024-01-30T05:23:34;1.83;;;0.73;;
81336;SDS011;70799;48.000;10.584;2024-01-30T05:26:10;3.22;;;1.08;;
81336;SDS011;70799;48.000;10.584;2024-01-30T05:28:46;2.42;;;0.80;;
81336;SDS011;70799;48.000;10.584;2024-01-30T05:31:22;2.80;;;0.80;;
81336;SDS011;70799;48.000;10.584;2024-01-30T05:33:59;1.75;;;0.75;;
81336;SDS011;70799;48.000;10.584;2024-01-30T05:36:35;2.60;;;0.80;;
81336;SDS011;70799;48.000;10.584;2024-01-30T05:39:11;1.75;;;0.52;;
81336;SDS011;70799;48.000;10.584;2024-01-30T05:41:48;4.15;;;0.90;;
81336;SDS011;70799;48.000;10.584;2024-01-30T05:44:24;1.67;;;0.50;;
81336;SDS011;70799;48.000;10.584;2024-01-30T05:47:00;1.45;;;0.60;;
81336;SDS011;70799;48.000;10.584;2024-01-30T05:49:35;1.27;;;0.60;;
81336;SDS011;70799;48.000;10.584;2024-01-30T05:52:12;1.20;;;0.68;;
81336;SDS011;70799;48.000;10.584;2024-01-30T05:54:48;1.25;;;0.60;;
81336;SDS011;70799;48.000;10.584;2024-01-30T05:57:24;2.05;;;0.70;;
81336;SDS011;70799;48.000;10.584;2024-01-30T06:00:03;1.67;;;0.50;;
81336;SDS011;70799;48.000;10.584;2024-01-30T06:02:40;1.65;;;0.50;;
81336;SDS011;70799;48.000;10.584;2024-01-30T06:05:16;1.58;;;0.63;;
81336;SDS011;70799;48.000;10.584;2024-01-30T06:07:52;1.58;;;0.50;;
81336;SDS011;70799;48.000;10.584;2024-01-30T06:10:29;1.63;;;0.70;;
81336;SDS011;70799;48.000;10.584;2024-01-30T06:13:05;1.88;;;0.90;;
81336;SDS011;70799;48.000;10.584;2024-01-30T06:15:41;2.25;;;0.52;;
81336;SDS011;70799;48.000;10.584;2024-01-30T06:18:17;1.63;;;0.50;;
81336;SDS011;70799;48.000;10.584;2024-01-30T06:20:53;1.60;;;0.50;;
81336;SDS011;70799;48.000;10.584;2024-01-30T06:23:29;1.25;;;0.55;;
81336;SDS011;70799;48.000;10.584;2024-01-30T06:26:06;2.33;;;0.82;;
81336;SDS011;70799;48.000;10.584;2024-01-30T06:28:42;1.88;;;0.60;;
81336;SDS011;70799;48.000;10.584;2024-01-30T06:31:18;3.00;;;1.10;;
81336;SDS011;70799;48.000;10.584;2024-01-30T06:33:54;4.60;;;0.68;;
81336;SDS011;70799;48.000;10.584;2024-01-30T06:36:33;1.75;;;0.70;;
81336;SDS011;70799;48.000;10.584;2024-01-30T06:39:09;1.50;;;0.60;;
81336;SDS011;70799;48.000;10.584;2024-01-30T06:41:45;1.65;;;0.68;;
81336;SDS011;70799;48.000;10.584;2024-01-30T06:44:21;2.28;;;0.70;;
81336;SDS011;70799;48.000;10.584;2024-01-30T06:46:57;1.95;;;0.60;;
81336;SDS011;70799;48.000;10.584;2024-01-30T06:49:33;1.20;;;0.70;;
81336;SDS011;70799;48.000;10.584;2024-01-30T06:52:10;2.35;;;0.70;;
81336;SDS011;70799;48.000;10.584;2024-01-30T06:54:46;2.78;;;0.80;;
81336;SDS011;70799;48.000;10.584;2024-01-30T06:57:22;1.65;;;0.68;;
81336;SDS011;70799;48.000;10.584;2024-01-30T07:00:02;1.92;;;0.98;;
81336;SDS011;70799;48.000;10.584;2024-01-30T07:02:38;2.72;;;1.00;;
81336;SDS011;70799;48.000;10.584;2024-01-30T07:05:14;3.13;;;0.93;;
81336;SDS011;70799;48.000;10.584;2024-01-30T07:07:51;1.77;;;0.63;;
81336;SDS011;70799;48.000;10.584;2024-01-30T07:10:27;2.60;;;1.00;;
81336;SDS011;70799;48.000;10.584;2024-01-30T07:13:03;1.70;;;0.80;;
81336;SDS011;70799;48.000;10.584;2024-01-30T07:15:47;1.63;;;0.70;;
81336;SDS011;70799;48.000;10.584;2024-01-30T07:18:23;2.00;;;0.70;;
81336;SDS011;70799;48.000;10.584;2024-01-30T07:20:59;2.22;;;0.68;;
81336;SDS011;70799;48.000;10.584;2024-01-30T07:23:37;1.80;;;0.82;;
81336;SDS011;70799;48.000;10.584;2024-01-30T07:26:14;1.52;;;0.70;;
81336;SDS011;70799;48.000;10.584;2024-01-30T07:28:50;2.03;;;0.70;;
81336;SDS011;70799;48.000;10.584;2024-01-30T07:31:26;1.13;;;0.57;;
81336;SDS011;70799;48.000;10.584;2024-01-30T07:34:05;1.92;;;0.82;;
81336;SDS011;70799;48.000;10.584;2024-01-30T07:36:41;3.17;;;0.63;;
81336;SDS011;70799;48.000;10.584;2024-01-30T07:39:19;3.70;;;0.80;;
81336;SDS011;70799;48.000;10.584;2024-01-30T07:41:55;3.72;;;0.75;;
81336;SDS011;70799;48.000;10.584;2024-01-30T07:44:33;2.00;;;0.70;;
81336;SDS011;70799;48.000;10.584;2024-01-30T07:47:09;1.63;;;0.85;;
81336;SDS011;70799;48.000;10.584;2024-01-30T07:49:44;1.85;;;0.65;;
81336;SDS011;70799;48.000;10.584;2024-01-30T07:54:57;1.70;;;0.82;;
81336;SDS011;70799;48.000;10.584;2024-01-30T07:57:33;1.40;;;0.57;;
81336;SDS011;70799;48.000;10.584;2024-01-30T08:00:09;1.63;;;0.73;;
81336;SDS011;70799;48.000;10.584;2024-01-30T08:02:45;1.70;;;0.82;;
81336;SDS011;70799;48.000;10.584;2024-01-30T08:05:21;4.43;;;0.90;;
81336;SDS011;70799;48.000;10.584;2024-01-30T08:07:58;2.17;;;0.70;;
81336;SDS011;70799;48.000;10.584;2024-01-30T08:10:34;3.50;;;1.63;;
81336;SDS011;70799;48.000;10.584;2024-01-30T08:13:10;2.30;;;0.85;;
81336;SDS011;70799;48.000;10.584;2024-01-30T08:15:47;2.53;;;0.63;;
81336;SDS011;70799;48.000;10.584;2024-01-30T08:18:23;2.33;;;0.80;;
81336;SDS011;70799;48.000;10.584;2024-01-30T08:23:38;3.40;;;1.20;;
81336;SDS011;70799;48.000;10.584;2024-01-30T08:26:15;2.60;;;1.10;;
81336;SDS011;70799;48.000;10.584;2024-01-30T08:28:51;6.90;;;3.60;;
81336;SDS011;70799;48.000;10.584;2024-01-30T08:31:27;3.78;;;2.47;;
81336;SDS011;70799;48.000;10.584;2024-01-30T08:34:03;3.28;;;1.70;;
81336;SDS011;70799;48.000;10.584;2024-01-30T08:36:40;2.92;;;1.05;;
81336;SDS011;70799;48.000;10.584;2024-01-30T08:39:17;2.45;;;1.20;;
81336;SDS011;70799;48.000;10.584;2024-01-30T08:41:55;2.65;;;1.30;;
81336;SDS011;70799;48.000;10.584;2024-01-30T08:44:32;2.53;;;0.98;;
81336;SDS011;70799;48.000;10.584;2024-01-30T08:49:44;4.47;;;1.67;;
81336;SDS011;70799;48.000;10.584;2024-01-30T08:52:21;3.25;;;1.33;;
81336;SDS011;70799;48.000;10.584;2024-01-30T08:54:57;3.35;;;1.30;;
81336;SDS011;70799;48.000;10.584;2024-01-30T08:57:34;2.65;;;0.82;;
81336;SDS011;70799;48.000;10.584;2024-01-30T09:00:10;2.78;;;0.88;;
81336;SDS011;70799;48.000;10.584;2024-01-30T09:02:47;3.15;;;0.93;;
81336;SDS011;70799;48.000;10.584;2024-01-30T09:05:23;2.17;;;0.90;;
81336;SDS011;70799;48.000;10.584;2024-01-30T09:07:59;2.85;;;1.33;;
81336;SDS011;70799;48.000;10.584;2024-01-30T09:10:36;2.72;;;0.80;;
81336;SDS011;70799;48.000;10.584;2024-01-30T09:13:13;2.13;;;0.82;;
81336;SDS011;70799;48.000;10.584;2024-01-30T09:15:49;1.73;;;0.60;;
81336;SDS011;70799;48.000;10.584;2024-01-30T09:18:28;2.58;;;0.82;;
81336;SDS011;70799;48.000;10.584;2024-01-30T09:21:04;7.43;;;3.05;;
81336;SDS011;70799;48.000;10.584;2024-01-30T09:23:40;7.18;;;2.45;;
81336;SDS011;70799;48.000;10.584;2024-01-30T09:26:16;6.22;;;2.60;;
81336;SDS011;70799;48.000;10.584;2024-01-30T09:28:55;5.47;;;1.70;;
81336;SDS011;70799;48.000;10.584;2024-01-30T09:31:39;5.88;;;2.13;;
81336;SDS011;70799;48.000;10.584;2024-01-30T09:34:21;4.40;;;1.30;;
81336;SDS011;70799;48.000;10.584;2024-01-30T09:36:59;5.03;;;1.45;;
81336;SDS011;70799;48.000;10.584;2024-01-30T09:39:37;4.53;;;1.65;;
81336;SDS011;70799;48.000;10.584;2024-01-30T09:45:05;3.97;;;1.50;;
81336;SDS011;70799;48.000;10.584;2024-01-30T09:47:42;3.05;;;1.52;;
81336;SDS011;70799;48.000;10.584;2024-01-30T09:50:22;3.08;;;1.10;;
81336;SDS011;70799;48.000;10.584;2024-01-30T09:53:01;2.75;;;0.98;;
81336;SDS011;70799;48.000;10.584;2024-01-30T09:55:38;2.80;;;0.93;;
81336;SDS011;70799;48.000;10.584;2024-01-30T09:58:19;2.95;;;1.48;;
81336;SDS011;70799;48.000;10.584;2024-01-30T10:00:55;2.42;;;1.25;;
81336;SDS011;70799;48.000;10.584;2024-01-30T10:03:33;4.72;;;0.98;;
81336;SDS011;70799;48.000;10.584;2024-01-30T10:06:10;2.55;;;1.10;;
81336;SDS011;70799;48.000;10.584;2024-01-30T10:08:46;3.15;;;0.98;;
81336;SDS011;70799;48.000;10.584;2024-01-30T10:11:22;3.83;;;1.65;;
81336;SDS011;70799;48.000;10.584;2024-01-30T10:13:59;2.10;;;1.00;;
81336;SDS011;70799;48.000;10.584;2024-01-30T10:16:36;3.75;;;1.02;;
81336;SDS011;70799;48.000;10.584;2024-01-30T10:19:15;4.25;;;1.38;;
81336;SDS011;70799;48.000;10.584;2024-01-30T10:21:52;4.05;;;1.83;;
81336;SDS011;70799;48.000;10.584;2024-01-30T10:24:35;3.13;;;1.40;;
81336;SDS011;70799;48.000;10.584;2024-01-30T10:27:12;3.78;;;1.48;;
81336;SDS011;70799;48.000;10.584;2024-01-30T10:29:49;4.00;;;1.30;;
81336;SDS011;70799;48.000;10.584;2024-01-30T10:32:27;5.65;;;1.70;;
81336;SDS011;70799;48.000;10.584;2024-01-30T10:35:04;2.17;;;1.08;;
81336;SDS011;70799;48.000;10.584;2024-01-30T10:37:44;4.20;;;1.88;;
81336;SDS011;70799;48.000;10.584;2024-01-30T10:40:24;2.90;;;1.23;;
81336;SDS011;70799;48.000;10.584;2024-01-30T10:43:03;4.20;;;1.38;;
81336;SDS011;70799;48.000;10.584;2024-01-30T10:45:39;3.90;;;0.90;;
81336;SDS011;70799;48.000;10.584;2024-01-30T10:48:16;3.35;;;0.98;;
81336;SDS011;70799;48.000;10.584;2024-01-30T10:50:54;2.40;;;1.05;;
81336;SDS011;70799;48.000;10.584;2024-01-30T10:53:32;4.15;;;1.73;;
81336;SDS011;70799;48.000;10.584;2024-01-30T10:56:09;4.70;;;1.63;;
81336;SDS011;70799;48.000;10.584;2024-01-30T10:58:46;3.88;;;1.50;;
81336;SDS011;70799;48.000;10.584;2024-01-30T11:01:26;3.55;;;1.40;;
81336;SDS011;70799;48.000;10.584;2024-01-30T11:04:03;3.88;;;1.33;;
81336;SDS011;70799;48.000;10.584;2024-01-30T11:06:43;2.88;;;1.13;;
81336;SDS011;70799;48.000;10.584;2024-01-30T11:09:19;3.33;;;0.75;;
81336;SDS011;70799;48.000;10.584;2024-01-30T11:11:56;2.60;;;0.80;;
81336;SDS011;70799;48.000;10.584;2024-01-30T11:14:34;2.03;;;0.70;;
81336;SDS011;70799;48.000;10.584;2024-01-30T11:17:12;1.83;;;0.95;;
81336;SDS011;70799;48.000;10.584;2024-01-30T11:19:48;4.40;;;1.60;;
81336;SDS011;70799;48.000;10.584;2024-01-30T11:22:26;3.92;;;1.30;;
81336;SDS011;70799;48.000;10.584;2024-01-30T11:25:05;2.13;;;1.08;;
81336;SDS011;70799;48.000;10.584;2024-01-30T11:27:41;3.20;;;1.30;;
81336;SDS011;70799;48.000;10.584;2024-01-30T11:30:21;4.43;;;1.15;;
81336;SDS011;70799;48.000;10.584;2024-01-30T11:33:09;5.13;;;1.63;;
81336;SDS011;70799;48.000;10.584;2024-01-30T11:35:48;5.60;;;1.70;;
81336;SDS011;70799;48.000;10.584;2024-01-30T11:38:26;3.10;;;1.17;;
81336;SDS011;70799;48.000;10.584;2024-01-30T11:41:05;4.47;;;1.50;;
81336;SDS011;70799;48.000;10.584;2024-01-30T11:43:41;5.70;;;1.70;;
81336;SDS011;70799;48.000;10.584;2024-01-30T11:46:20;2.88;;;1.30;;
81336;SDS011;70799;48.000;10.584;2024-01-30T11:48:57;3.83;;;1.40;;
81336;SDS011;70799;48.000;10.584;2024-01-30T11:51:34;3.95;;;1.70;;
81336;SDS011;70799;48.000;10.584;2024-01-30T11:54:10;4.53;;;1.42;;
81336;SDS011;70799;48.000;10.584;2024-01-30T11:56:46;3.33;;;1.40;;
81336;SDS011;70799;48.000;10.584;2024-01-30T11:59:22;5.60;;;1.30;;
81336;SDS011;70799;48.000;10.584;2024-01-30T12:01:58;3.80;;;1.60;;
81336;SDS011;70799;48.000;10.584;2024-01-30T12:04:35;3.15;;;1.20;;
81336;SDS011;70799;48.000;10.584;2024-01-30T12:07:11;3.10;;;1.42;;
81336;SDS011;70799;48.000;10.584;2024-01-30T12:09:52;3.50;;;1.67;;
81336;SDS011;70799;48.000;10.584;2024-01-30T12:12:29;3.30;;;1.50;;
81336;SDS011;70799;48.000;10.584;2024-01-30T12:15:05;4.35;;;1.65;;
81336;SDS011;70799;48.000;10.584;2024-01-30T12:17:42;5.20;;;1.63;;
81336;SDS011;70799;48.000;10.584;2024-01-30T12:20:18;3.25;;;1.48;;
81336;SDS011;70799;48.000;10.584;2024-01-30T12:22:55;3.75;;;1.40;;
81336;SDS011;70799;48.000;10.584;2024-01-30T12:25:37;3.55;;;1.83;;
81336;SDS011;70799;48.000;10.584;2024-01-30T12:28:13;5.68;;;1.63;;
81336;SDS011;70799;48.000;10.584;2024-01-30T12:30:56;4.13;;;1.75;;
81336;SDS011;70799;48.000;10.584;2024-01-30T12:33:35;4.85;;;1.80;;
81336;SDS011;70799;48.000;10.584;2024-01-30T12:36:12;5.15;;;1.90;;
81336;SDS011;70799;48.000;10.584;2024-01-30T12:38:48;4.57;;;1.58;;
81336;SDS011;70799;48.000;10.584;2024-01-30T12:41:25;3.28;;;1.60;;
81336;SDS011;70799;48.000;10.584;2024-01-30T12:44:03;9.77;;;2.60;;
81336;SDS011;70799;48.000;10.584;2024-01-30T12:46:40;3.58;;;1.70;;
81336;SDS011;70799;48.000;10.584;2024-01-30T12:49:19;3.50;;;1.63;;
81336;SDS011;70799;48.000;10.584;2024-01-30T12:51:55;5.60;;;1.70;;
81336;SDS011;70799;48.000;10.584;2024-01-30T12:54:32;3.63;;;1.40;;
81336;SDS011;70799;48.000;10.584;2024-01-30T12:57:08;4.95;;;2.00;;
81336;SDS011;70799;48.000;10.584;2024-01-30T12:59:46;3.38;;;1.55;;
81336;SDS011;70799;48.000;10.584;2024-01-30T13:02:22;4.28;;;1.55;;
81336;SDS011;70799;48.000;10.584;2024-01-30T13:05:03;3.83;;;1.80;;
81336;SDS011;70799;48.000;10.584;2024-01-30T13:07:40;5.55;;;2.13;;
81336;SDS011;70799;48.000;10.584;2024-01-30T13:10:16;3.10;;;1.48;;
81336;SDS011;70799;48.000;10.584;2024-01-30T13:12:52;4.38;;;1.77;;
81336;SDS011;70799;48.000;10.584;2024-01-30T13:15:29;3.88;;;1.88;;
81336;SDS011;70799;48.000;10.584;2024-01-30T13:18:07;5.78;;;2.08;;
81336;SDS011;70799;48.000;10.584;2024-01-30T13:20:46;3.83;;;1.85;;
81336;SDS011;70799;48.000;10.584;2024-01-30T13:23:22;3.85;;;1.70;;
81336;SDS011;70799;48.000;10.584;2024-01-30T13:25:58;3.38;;;1.75;;
81336;SDS011;70799;48.000;10.584;2024-01-30T13:28:38;6.72;;;1.88;;
81336;SDS011;70799;48.000;10.584;2024-01-30T13:31:14;4.10;;;1.65;;
81336;SDS011;70799;48.000;10.584;2024-01-30T13:33:51;10.77;;;1.98;;
81336;SDS011;70799;48.000;10.584;2024-01-30T13:36:31;7.57;;;1.63;;
81336;SDS011;70799;48.000;10.584;2024-01-30T13:39:18;3.00;;;1.33;;
81336;SDS011;70799;48.000;10.584;2024-01-30T13:42:19;3.40;;;1.58;;
81336;SDS011;70799;48.000;10.584;2024-01-30T13:44:55;4.88;;;1.40;;
81336;SDS011;70799;48.000;10.584;2024-01-30T13:47:31;5.35;;;1.70;;
81336;SDS011;70799;48.000;10.584;2024-01-30T13:50:11;4.40;;;1.85;;
81336;SDS011;70799;48.000;10.584;2024-01-30T13:52:52;4.35;;;1.73;;
81336;SDS011;70799;48.000;10.584;2024-01-30T13:55:30;4.20;;;1.67;;
81336;SDS011;70799;48.000;10.584;2024-01-30T13:58:09;4.20;;;1.33;;
81336;SDS011;70799;48.000;10.584;2024-01-30T14:00:48;5.38;;;1.63;;
81336;SDS011;70799;48.000;10.584;2024-01-30T14:03:24;5.70;;;2.58;;
81336;SDS011;70799;48.000;10.584;2024-01-30T14:06:00;4.93;;;1.83;;
81336;SDS011;70799;48.000;10.584;2024-01-30T14:08:39;5.65;;;1.33;;
81336;SDS011;70799;48.000;10.584;2024-01-30T14:11:24;4.90;;;2.05;;
81336;SDS011;70799;48.000;10.584;2024-01-30T14:14:01;3.38;;;1.65;;
81336;SDS011;70799;48.000;10.584;2024-01-30T14:16:37;3.58;;;1.60;;
81336;SDS011;70799;48.000;10.584;2024-01-30T14:19:13;3.83;;;1.90;;
81336;SDS011;70799;48.000;10.584;2024-01-30T14:21:52;6.43;;;2.35;;
81336;SDS011;70799;48.000;10.584;2024-01-30T14:24:28;6.75;;;2.63;;
81336;SDS011;70799;48.000;10.584;2024-01-30T14:27:04;4.15;;;2.17;;
81336;SDS011;70799;48.000;10.584;2024-01-30T14:29:40;4.40;;;1.80;;
81336;SDS011;70799;48.000;10.584;2024-01-30T14:32:16;4.15;;;2.20;;
81336;SDS011;70799;48.000;10.584;2024-01-30T14:34:52;4.55;;;1.85;;
81336;SDS011;70799;48.000;10.584;2024-01-30T14:37:28;4.57;;;1.73;;
81336;SDS011;70799;48.000;10.584;2024-01-30T14:40:05;4.30;;;1.85;;
81336;SDS011;70799;48.000;10.584;2024-01-30T14:42:42;4.80;;;1.70;;
81336;SDS011;70799;48.000;10.584;2024-01-30T14:45:18;3.65;;;1.63;;
81336;SDS011;70799;48.000;10.584;2024-01-30T14:47:54;4.63;;;2.05;;
81336;SDS011;70799;48.000;10.584;2024-01-30T14:50:32;2.72;;;1.30;;
81336;SDS011;70799;48.000;10.584;2024-01-30T14:53:08;3.85;;;1.33;;
81336;SDS011;70799;48.000;10.584;2024-01-30T14:55:44;4.57;;;1.60;;
81336;SDS011;70799;48.000;10.584;2024-01-30T14:58:20;4.88;;;1.63;;
81336;SDS011;70799;48.000;10.584;2024-01-30T15:00:56;3.20;;;1.30;;
81336;SDS011;70799;48.000;10.584;2024-01-30T15:03:32;4.18;;;1.70;;
81336;SDS011;70799;48.000;10.584;2024-01-30T15:06:09;4.10;;;1.55;;
81336;SDS011;70799;48.000;10.584;2024-01-30T15:08:47;5.32;;;2.20;;
81336;SDS011;70799;48.000;10.584;2024-01-30T15:11:23;3.35;;;1.48;;
81336;SDS011;70799;48.000;10.584;2024-01-30T15:13:59;6.28;;;2.60;;
81336;SDS011;70799;48.000;10.584;2024-01-30T15:16:37;5.50;;;1.63;;
81336;SDS011;70799;48.000;10.584;2024-01-30T15:19:14;4.20;;;1.92;;
81336;SDS011;70799;48.000;10.584;2024-01-30T15:21:50;4.15;;;1.90;;
81336;SDS011;70799;48.000;10.584;2024-01-30T15:24:27;3.85;;;1.38;;
81336;SDS011;70799;48.000;10.584;2024-01-30T15:27:04;3.53;;;1.67;;
81336;SDS011;70799;48.000;10.584;2024-01-30T15:29:40;4.55;;;1.65;;
81336;SDS011;70799;48.000;10.584;2024-01-30T15:32:16;3.47;;;1.65;;
81336;SDS011;70799;48.000;10.584;2024-01-30T15:34:52;3.83;;;1.58;;
81336;SDS011;70799;48.000;10.584;2024-01-30T15:37:29;6.82;;;2.70;;
81336;SDS011;70799;48.000;10.584;2024-01-30T15:40:06;13.23;;;6.07;;
81336;SDS011;70799;48.000;10.584;2024-01-30T15:42:42;5.68;;;3.00;;
81336;SDS011;70799;48.000;10.584;2024-01-30T15:45:18;4.32;;;2.05;;
81336;SDS011;70799;48.000;10.584;2024-01-30T15:47:57;4.63;;;1.65;;
81336;SDS011;70799;48.000;10.584;2024-01-30T15:50:34;5.50;;;2.17;;
81336;SDS011;70799;48.000;10.584;2024-01-30T15:53:11;4.45;;;2.72;;
81336;SDS011;70799;48.000;10.584;2024-01-30T15:55:47;5.75;;;2.42;;